sensor_id;sensor_type;location;lat;lon;timestamp;P1;durP1;ratioP1;P2;durP2;ratioP2
50429;SDS011;36359;41.556;-8.418;2024-03-23T00:51:20;10.68;;;5.72;;
50429;SDS011;36359;41.556;-8.418;2024-03-23T00:53:47;11.13;;;6.22;;
50429;SDS011;36359;41.556;-8.418;2024-03-23T00:56:12;10.43;;;6.30;;
50429;SDS011;36359;41.556;-8.418;2024-03-23T00:58:38;12.77;;;7.47;;
50429;SDS011;36359;41.556;-8.418;2024-03-23T01:01:04;9.85;;;7.80;;
50429;SDS011;36359;41.556;-8.418;2024-03-23T01:03:30;17.48;;;9.57;;
50429;SDS011;36359;41.556;-8.418;2024-03-23T01:05:59;16.27;;;10.07;;
50429;SDS011;36359;41.556;-8.418;2024-03-23T01:08:25;11.90;;;7.47;;
50429;SDS011;36359;41.556;-8.418;2024-03-23T01:10:58;14.68;;;7.40;;
50429;SDS011;36359;41.556;-8.418;2024-03-23T01:13:24;10.23;;;6.03;;
50429;SDS011;36359;41.556;-8.418;2024-03-23T01:15:51;10.98;;;5.85;;
50429;SDS011;36359;41.556;-8.418;2024-03-23T01:18:17;12.20;;;5.35;;
50429;SDS011;36359;41.556;-8.418;2024-03-23T01:20:43;7.18;;;4.40;;
50429;SDS011;36359;41.556;-8.418;2024-03-23T01:23:10;10.45;;;4.20;;
50429;SDS011;36359;41.556;-8.418;2024-03-23T01:25:36;8.35;;;3.90;;
50429;SDS011;36359;41.556;-8.418;2024-03-23T01:28:02;10.88;;;4.10;;
50429;SDS011;36359;41.556;-8.418;2024-03-23T01:30:28;7.72;;;3.67;;
50429;SDS011;36359;41.556;-8.418;2024-03-23T01:32:53;8.43;;;3.47;;
50429;SDS011;36359;41.556;-8.418;2024-03-23T01:35:19;7.88;;;3.28;;
50429;SDS011;36359;41.556;-8.418;2024-03-23T01:37:45;7.07;;;3.38;;
50429;SDS011;36359;41.556;-8.418;2024-03-23T01:40:11;6.25;;;3.78;;
50429;SDS011;36359;41.556;-8.418;2024-03-23T01:42:39;6.30;;;3.20;;
50429;SDS011;36359;41.556;-8.418;2024-03-23T01:45:08;7.10;;;3.63;;
50429;SDS011;36359;41.556;-8.418;2024-03-23T01:47:37;8.30;;;3.60;;
50429;SDS011;36359;41.556;-8.418;2024-03-23T01:50:03;7.63;;;3.42;;
50429;SDS011;36359;41.556;-8.418;2024-03-23T01:52:30;9.80;;;3.13;;
50429;SDS011;36359;41.556;-8.418;2024-03-23T01:54:55;6.93;;;2.95;;
50429;SDS011;36359;41.556;-8.418;2024-03-23T01:57:21;5.45;;;2.92;;
50429;SDS011;36359;41.556;-8.418;2024-03-23T01:59:47;7.72;;;2.80;;
50429;SDS011;36359;41.556;-8.418;2024-03-23T02:02:21;8.73;;;3.70;;
50429;SDS011;36359;41.556;-8.418;2024-03-23T02:04:46;7.93;;;3.95;;
50429;SDS011;36359;41.556;-8.418;2024-03-23T02:07:15;11.40;;;3.10;;
50429;SDS011;36359;41.556;-8.418;2024-03-23T02:09:40;7.38;;;3.30;;
50429;SDS011;36359;41.556;-8.418;2024-03-23T02:12:08;8.98;;;2.72;;
50429;SDS011;36359;41.556;-8.418;2024-03-23T02:14:34;4.85;;;2.60;;
50429;SDS011;36359;41.556;-8.418;2024-03-23T02:17:00;6.90;;;2.70;;
50429;SDS011;36359;41.556;-8.418;2024-03-23T02:19:26;7.60;;;2.58;;
50429;SDS011;36359;41.556;-8.418;2024-03-23T02:21:51;7.15;;;2.55;;
50429;SDS011;36359;41.556;-8.418;2024-03-23T02:24:17;13.48;;;2.53;;
50429;SDS011;36359;41.556;-8.418;2024-03-23T02:26:43;5.93;;;2.50;;
50429;SDS011;36359;41.556;-8.418;2024-03-23T02:29:08;7.13;;;2.55;;
50429;SDS011;36359;41.556;-8.418;2024-03-23T02:31:35;10.02;;;3.13;;
50429;SDS011;36359;41.556;-8.418;2024-03-23T02:34:01;9.23;;;2.70;;
50429;SDS011;36359;41.556;-8.418;2024-03-23T02:36:27;8.43;;;2.50;;
50429;SDS011;36359;41.556;-8.418;2024-03-23T02:38:52;6.72;;;2.30;;
50429;SDS011;36359;41.556;-8.418;2024-03-23T02:41:18;4.28;;;1.70;;
50429;SDS011;36359;41.556;-8.418;2024-03-23T02:43:48;7.85;;;2.28;;
50429;SDS011;36359;41.556;-8.418;2024-03-23T02:46:15;5.97;;;2.17;;
50429;SDS011;36359;41.556;-8.418;2024-03-23T02:48:41;4.75;;;2.20;;
50429;SDS011;36359;41.556;-8.418;2024-03-23T02:51:07;6.43;;;2.40;;
50429;SDS011;36359;41.556;-8.418;2024-03-23T02:53:33;7.85;;;2.78;;
50429;SDS011;36359;41.556;-8.418;2024-03-23T02:55:59;7.97;;;2.53;;
50429;SDS011;36359;41.556;-8.418;2024-03-23T02:58:24;10.18;;;2.38;;
50429;SDS011;36359;41.556;-8.418;2024-03-23T03:00:50;7.80;;;2.78;;
50429;SDS011;36359;41.556;-8.418;2024-03-23T03:03:16;5.32;;;1.83;;
50429;SDS011;36359;41.556;-8.418;2024-03-23T03:05:41;6.57;;;1.90;;
50429;SDS011;36359;41.556;-8.418;2024-03-23T03:08:07;9.57;;;2.33;;
50429;SDS011;36359;41.556;-8.418;2024-03-23T03:10:33;7.85;;;1.92;;
50429;SDS011;36359;41.556;-8.418;2024-03-23T03:13:00;11.65;;;2.95;;
50429;SDS011;36359;41.556;-8.418;2024-03-23T03:15:26;5.40;;;2.65;;
50429;SDS011;36359;41.556;-8.418;2024-03-23T03:17:52;11.40;;;2.65;;
50429;SDS011;36359;41.556;-8.418;2024-03-23T03:20:17;6.18;;;2.67;;
50429;SDS011;36359;41.556;-8.418;2024-03-23T03:22:43;8.68;;;2.28;;
50429;SDS011;36359;41.556;-8.418;2024-03-23T03:25:09;7.50;;;2.30;;
50429;SDS011;36359;41.556;-8.418;2024-03-23T03:27:35;7.65;;;2.63;;
50429;SDS011;36359;41.556;-8.418;2024-03-23T03:30:01;4.47;;;2.00;;
50429;SDS011;36359;41.556;-8.418;2024-03-23T03:32:30;4.70;;;2.17;;
50429;SDS011;36359;41.556;-8.418;2024-03-23T03:34:56;6.75;;;2.08;;
50429;SDS011;36359;41.556;-8.418;2024-03-23T03:37:22;5.53;;;2.00;;
50429;SDS011;36359;41.556;-8.418;2024-03-23T03:39:47;5.57;;;2.00;;
50429;SDS011;36359;41.556;-8.418;2024-03-23T03:42:14;6.22;;;2.42;;
50429;SDS011;36359;41.556;-8.418;2024-03-23T03:44:40;9.48;;;2.83;;
50429;SDS011;36359;41.556;-8.418;2024-03-23T03:47:06;6.43;;;2.33;;
50429;SDS011;36359;41.556;-8.418;2024-03-23T03:49:33;7.90;;;2.50;;
50429;SDS011;36359;41.556;-8.418;2024-03-23T03:52:02;5.22;;;2.25;;
50429;SDS011;36359;41.556;-8.418;2024-03-23T03:54:28;6.82;;;2.22;;
50429;SDS011;36359;41.556;-8.418;2024-03-23T03:56:54;8.48;;;2.20;;
50429;SDS011;36359;41.556;-8.418;2024-03-23T03:59:20;9.50;;;1.85;;
50429;SDS011;36359;41.556;-8.418;2024-03-23T04:01:45;7.63;;;2.28;;
50429;SDS011;36359;41.556;-8.418;2024-03-23T04:04:11;8.57;;;2.10;;
50429;SDS011;36359;41.556;-8.418;2024-03-23T04:06:37;8.10;;;2.17;;
50429;SDS011;36359;41.556;-8.418;2024-03-23T04:09:03;5.38;;;1.80;;
50429;SDS011;36359;41.556;-8.418;2024-03-23T04:11:29;5.70;;;2.10;;
50429;SDS011;36359;41.556;-8.418;2024-03-23T04:13:54;7.22;;;1.88;;
50429;SDS011;36359;41.556;-8.418;2024-03-23T04:16:29;6.80;;;1.80;;
50429;SDS011;36359;41.556;-8.418;2024-03-23T04:18:59;4.68;;;1.85;;
50429;SDS011;36359;41.556;-8.418;2024-03-23T04:21:25;8.90;;;2.28;;
50429;SDS011;36359;41.556;-8.418;2024-03-23T04:23:51;7.70;;;2.70;;
50429;SDS011;36359;41.556;-8.418;2024-03-23T04:26:17;8.27;;;2.50;;
50429;SDS011;36359;41.556;-8.418;2024-03-23T04:28:43;11.73;;;2.88;;
50429;SDS011;36359;41.556;-8.418;2024-03-23T04:31:09;7.55;;;2.53;;
50429;SDS011;36359;41.556;-8.418;2024-03-23T04:33:35;8.48;;;3.13;;
50429;SDS011;36359;41.556;-8.418;2024-03-23T04:36:00;6.53;;;2.67;;
50429;SDS011;36359;41.556;-8.418;2024-03-23T04:38:26;6.05;;;2.92;;
50429;SDS011;36359;41.556;-8.418;2024-03-23T04:40:59;6.70;;;3.30;;
50429;SDS011;36359;41.556;-8.418;2024-03-23T04:43:27;9.25;;;2.60;;
50429;SDS011;36359;41.556;-8.418;2024-03-23T04:45:53;9.93;;;2.80;;
50429;SDS011;36359;41.556;-8.418;2024-03-23T04:48:22;8.50;;;3.20;;
50429;SDS011;36359;41.556;-8.418;2024-03-23T04:50:49;14.27;;;2.92;;
50429;SDS011;36359;41.556;-8.418;2024-03-23T04:53:15;14.43;;;3.22;;
50429;SDS011;36359;41.556;-8.418;2024-03-23T04:55:42;14.98;;;3.03;;
50429;SDS011;36359;41.556;-8.418;2024-03-23T04:58:08;10.95;;;2.70;;
50429;SDS011;36359;41.556;-8.418;2024-03-23T05:00:34;12.50;;;3.13;;
50429;SDS011;36359;41.556;-8.418;2024-03-23T05:02:59;15.18;;;2.70;;
50429;SDS011;36359;41.556;-8.418;2024-03-23T05:05:25;15.00;;;2.88;;
50429;SDS011;36359;41.556;-8.418;2024-03-23T05:07:51;10.18;;;2.38;;
50429;SDS011;36359;41.556;-8.418;2024-03-23T05:10:17;9.57;;;2.67;;
50429;SDS011;36359;41.556;-8.418;2024-03-23T05:12:42;7.75;;;3.08;;
50429;SDS011;36359;41.556;-8.418;2024-03-23T05:15:10;9.93;;;2.10;;
50429;SDS011;36359;41.556;-8.418;2024-03-23T05:17:36;10.45;;;2.42;;
50429;SDS011;36359;41.556;-8.418;2024-03-23T05:20:03;11.05;;;2.90;;
50429;SDS011;36359;41.556;-8.418;2024-03-23T05:25:02;8.52;;;2.85;;
50429;SDS011;36359;41.556;-8.418;2024-03-23T05:27:31;10.07;;;3.58;;
50429;SDS011;36359;41.556;-8.418;2024-03-23T05:29:58;12.95;;;2.72;;
50429;SDS011;36359;41.556;-8.418;2024-03-23T05:32:24;9.93;;;3.33;;
50429;SDS011;36359;41.556;-8.418;2024-03-23T05:34:50;9.80;;;2.50;;
50429;SDS011;36359;41.556;-8.418;2024-03-23T05:37:21;16.15;;;2.60;;
50429;SDS011;36359;41.556;-8.418;2024-03-23T05:39:47;10.55;;;2.42;;
50429;SDS011;36359;41.556;-8.418;2024-03-23T05:42:15;10.02;;;2.05;;
50429;SDS011;36359;41.556;-8.418;2024-03-23T05:44:46;9.55;;;2.03;;
50429;SDS011;36359;41.556;-8.418;2024-03-23T05:47:12;9.23;;;2.45;;
50429;SDS011;36359;41.556;-8.418;2024-03-23T05:49:41;9.13;;;2.55;;
50429;SDS011;36359;41.556;-8.418;2024-03-23T05:52:08;11.77;;;2.70;;
50429;SDS011;36359;41.556;-8.418;2024-03-23T05:54:35;12.55;;;2.28;;
50429;SDS011;36359;41.556;-8.418;2024-03-23T05:57:01;10.52;;;2.60;;
50429;SDS011;36359;41.556;-8.418;2024-03-23T05:59:27;9.27;;;2.30;;
50429;SDS011;36359;41.556;-8.418;2024-03-23T06:01:53;11.65;;;2.63;;
50429;SDS011;36359;41.556;-8.418;2024-03-23T06:04:19;12.25;;;2.92;;
50429;SDS011;36359;41.556;-8.418;2024-03-23T06:06:45;11.02;;;2.53;;
50429;SDS011;36359;41.556;-8.418;2024-03-23T06:09:11;10.85;;;2.28;;
50429;SDS011;36359;41.556;-8.418;2024-03-23T06:11:36;8.27;;;2.05;;
50429;SDS011;36359;41.556;-8.418;2024-03-23T06:14:02;8.60;;;2.10;;
50429;SDS011;36359;41.556;-8.418;2024-03-23T06:16:29;8.43;;;2.50;;
50429;SDS011;36359;41.556;-8.418;2024-03-23T06:18:56;9.93;;;2.20;;
50429;SDS011;36359;41.556;-8.418;2024-03-23T06:21:21;10.25;;;2.65;;
50429;SDS011;36359;41.556;-8.418;2024-03-23T06:23:51;10.38;;;2.17;;
50429;SDS011;36359;41.556;-8.418;2024-03-23T06:26:18;9.60;;;2.08;;
50429;SDS011;36359;41.556;-8.418;2024-03-23T06:28:44;12.05;;;2.67;;
50429;SDS011;36359;41.556;-8.418;2024-03-23T06:31:10;11.90;;;2.20;;
50429;SDS011;36359;41.556;-8.418;2024-03-23T06:33:36;8.85;;;2.65;;
50429;SDS011;36359;41.556;-8.418;2024-03-23T06:36:05;10.90;;;2.90;;
50429;SDS011;36359;41.556;-8.418;2024-03-23T06:38:31;10.88;;;2.70;;
50429;SDS011;36359;41.556;-8.418;2024-03-23T06:40:57;9.40;;;2.83;;
50429;SDS011;36359;41.556;-8.418;2024-03-23T06:43:23;11.27;;;3.00;;
50429;SDS011;36359;41.556;-8.418;2024-03-23T06:45:55;11.77;;;2.20;;
50429;SDS011;36359;41.556;-8.418;2024-03-23T06:48:21;11.00;;;2.83;;
50429;SDS011;36359;41.556;-8.418;2024-03-23T06:50:47;8.68;;;2.40;;
50429;SDS011;36359;41.556;-8.418;2024-03-23T06:53:13;10.90;;;3.10;;
50429;SDS011;36359;41.556;-8.418;2024-03-23T06:55:40;11.38;;;2.40;;
50429;SDS011;36359;41.556;-8.418;2024-03-23T06:58:06;11.57;;;2.53;;
50429;SDS011;36359;41.556;-8.418;2024-03-23T07:00:32;10.68;;;2.75;;
50429;SDS011;36359;41.556;-8.418;2024-03-23T07:02:58;8.45;;;2.10;;
50429;SDS011;36359;41.556;-8.418;2024-03-23T07:05:24;16.30;;;2.58;;
50429;SDS011;36359;41.556;-8.418;2024-03-23T07:07:50;9.75;;;1.88;;
50429;SDS011;36359;41.556;-8.418;2024-03-23T07:10:16;15.23;;;2.83;;
50429;SDS011;36359;41.556;-8.418;2024-03-23T07:12:43;9.48;;;2.00;;
50429;SDS011;36359;41.556;-8.418;2024-03-23T07:15:11;10.82;;;2.20;;
50429;SDS011;36359;41.556;-8.418;2024-03-23T07:17:37;10.55;;;2.90;;
50429;SDS011;36359;41.556;-8.418;2024-03-23T07:20:03;10.57;;;2.55;;
50429;SDS011;36359;41.556;-8.418;2024-03-23T07:22:32;6.50;;;2.65;;
50429;SDS011;36359;41.556;-8.418;2024-03-23T07:25:01;12.35;;;2.78;;
50429;SDS011;36359;41.556;-8.418;2024-03-23T07:27:27;12.40;;;2.50;;
50429;SDS011;36359;41.556;-8.418;2024-03-23T07:29:52;9.32;;;2.45;;
50429;SDS011;36359;41.556;-8.418;2024-03-23T07:32:18;11.60;;;2.95;;
50429;SDS011;36359;41.556;-8.418;2024-03-23T07:34:44;10.80;;;2.30;;
50429;SDS011;36359;41.556;-8.418;2024-03-23T07:37:10;13.52;;;2.92;;
50429;SDS011;36359;41.556;-8.418;2024-03-23T07:39:36;10.77;;;2.67;;
50429;SDS011;36359;41.556;-8.418;2024-03-23T07:42:02;10.80;;;3.10;;
50429;SDS011;36359;41.556;-8.418;2024-03-23T07:44:28;6.97;;;2.55;;
50429;SDS011;36359;41.556;-8.418;2024-03-23T07:46:53;8.27;;;2.80;;
50429;SDS011;36359;41.556;-8.418;2024-03-23T07:49:19;10.68;;;2.92;;
50429;SDS011;36359;41.556;-8.418;2024-03-23T07:51:45;13.48;;;3.15;;
50429;SDS011;36359;41.556;-8.418;2024-03-23T07:54:10;6.03;;;2.13;;
50429;SDS011;36359;41.556;-8.418;2024-03-23T07:56:36;7.55;;;2.28;;
50429;SDS011;36359;41.556;-8.418;2024-03-23T07:59:02;10.70;;;3.17;;
50429;SDS011;36359;41.556;-8.418;2024-03-23T08:01:31;11.38;;;2.70;;
50429;SDS011;36359;41.556;-8.418;2024-03-23T08:03:56;13.45;;;2.72;;
50429;SDS011;36359;41.556;-8.418;2024-03-23T08:06:22;9.40;;;2.88;;
50429;SDS011;36359;41.556;-8.418;2024-03-23T08:08:50;9.68;;;2.90;;
50429;SDS011;36359;41.556;-8.418;2024-03-23T08:11:25;9.93;;;2.50;;
50429;SDS011;36359;41.556;-8.418;2024-03-23T08:13:52;8.30;;;1.88;;
50429;SDS011;36359;41.556;-8.418;2024-03-23T08:16:18;13.75;;;2.45;;
50429;SDS011;36359;41.556;-8.418;2024-03-23T08:18:43;11.27;;;2.25;;
50429;SDS011;36359;41.556;-8.418;2024-03-23T08:21:09;8.93;;;2.05;;
50429;SDS011;36359;41.556;-8.418;2024-03-23T08:23:36;14.90;;;3.03;;
50429;SDS011;36359;41.556;-8.418;2024-03-23T08:26:09;10.85;;;2.92;;
50429;SDS011;36359;41.556;-8.418;2024-03-23T08:28:36;11.95;;;2.80;;
50429;SDS011;36359;41.556;-8.418;2024-03-23T08:31:10;11.88;;;3.00;;
50429;SDS011;36359;41.556;-8.418;2024-03-23T08:33:37;11.50;;;3.20;;
50429;SDS011;36359;41.556;-8.418;2024-03-23T08:36:04;8.48;;;3.05;;
50429;SDS011;36359;41.556;-8.418;2024-03-23T08:38:31;13.32;;;2.70;;
50429;SDS011;36359;41.556;-8.418;2024-03-23T08:41:01;15.20;;;2.70;;
50429;SDS011;36359;41.556;-8.418;2024-03-23T08:43:28;14.05;;;2.83;;
50429;SDS011;36359;41.556;-8.418;2024-03-23T08:46:06;10.40;;;2.30;;
50429;SDS011;36359;41.556;-8.418;2024-03-23T08:48:37;10.10;;;2.63;;
50429;SDS011;36359;41.556;-8.418;2024-03-23T08:51:05;16.65;;;4.45;;
50429;SDS011;36359;41.556;-8.418;2024-03-23T08:53:32;13.95;;;3.42;;
50429;SDS011;36359;41.556;-8.418;2024-03-23T08:55:58;6.72;;;2.85;;
50429;SDS011;36359;41.556;-8.418;2024-03-23T08:58:26;10.75;;;3.75;;
50429;SDS011;36359;41.556;-8.418;2024-03-23T09:00:53;10.80;;;3.70;;
50429;SDS011;36359;41.556;-8.418;2024-03-23T09:03:23;12.10;;;3.47;;
50429;SDS011;36359;41.556;-8.418;2024-03-23T09:05:50;10.35;;;3.30;;
50429;SDS011;36359;41.556;-8.418;2024-03-23T09:08:17;8.63;;;3.72;;
50429;SDS011;36359;41.556;-8.418;2024-03-23T09:10:43;8.93;;;2.63;;
50429;SDS011;36359;41.556;-8.418;2024-03-23T09:13:09;13.25;;;2.97;;
50429;SDS011;36359;41.556;-8.418;2024-03-23T09:15:36;8.95;;;3.10;;
50429;SDS011;36359;41.556;-8.418;2024-03-23T09:18:03;10.10;;;2.40;;
50429;SDS011;36359;41.556;-8.418;2024-03-23T09:20:32;9.52;;;2.42;;
50429;SDS011;36359;41.556;-8.418;2024-03-23T09:22:58;11.95;;;2.55;;
50429;SDS011;36359;41.556;-8.418;2024-03-23T09:25:24;11.50;;;2.58;;
50429;SDS011;36359;41.556;-8.418;2024-03-23T09:27:50;10.88;;;2.47;;
50429;SDS011;36359;41.556;-8.418;2024-03-23T09:30:17;10.07;;;1.92;;
50429;SDS011;36359;41.556;-8.418;2024-03-23T09:32:43;12.35;;;2.70;;
50429;SDS011;36359;41.556;-8.418;2024-03-23T09:35:10;10.02;;;2.75;;
50429;SDS011;36359;41.556;-8.418;2024-03-23T09:37:36;11.27;;;3.20;;
50429;SDS011;36359;41.556;-8.418;2024-03-23T09:40:02;10.35;;;2.92;;
50429;SDS011;36359;41.556;-8.418;2024-03-23T09:42:28;11.73;;;2.45;;
50429;SDS011;36359;41.556;-8.418;2024-03-23T09:44:54;13.02;;;2.95;;
50429;SDS011;36359;41.556;-8.418;2024-03-23T09:47:23;7.85;;;2.47;;
50429;SDS011;36359;41.556;-8.418;2024-03-23T09:49:50;9.30;;;2.47;;
50429;SDS011;36359;41.556;-8.418;2024-03-23T09:52:16;10.02;;;2.35;;
50429;SDS011;36359;41.556;-8.418;2024-03-23T09:54:42;13.57;;;3.97;;
50429;SDS011;36359;41.556;-8.418;2024-03-23T09:57:08;12.43;;;5.28;;
50429;SDS011;36359;41.556;-8.418;2024-03-23T09:59:34;69.22;;;38.38;;
50429;SDS011;36359;41.556;-8.418;2024-03-23T10:02:01;67.13;;;38.60;;
50429;SDS011;36359;41.556;-8.418;2024-03-23T10:07:27;27.38;;;16.55;;
50429;SDS011;36359;41.556;-8.418;2024-03-23T10:09:56;23.25;;;13.95;;
50429;SDS011;36359;41.556;-8.418;2024-03-23T10:12:22;37.75;;;23.08;;
50429;SDS011;36359;41.556;-8.418;2024-03-23T10:14:49;17.75;;;7.75;;
50429;SDS011;36359;41.556;-8.418;2024-03-23T10:17:15;12.45;;;6.05;;
50429;SDS011;36359;41.556;-8.418;2024-03-23T10:19:49;21.38;;;9.77;;
50429;SDS011;36359;41.556;-8.418;2024-03-23T10:22:20;13.48;;;5.60;;
50429;SDS011;36359;41.556;-8.418;2024-03-23T10:24:47;9.10;;;2.60;;
50429;SDS011;36359;41.556;-8.418;2024-03-23T10:27:21;12.50;;;5.03;;
50429;SDS011;36359;41.556;-8.418;2024-03-23T10:29:47;9.68;;;3.15;;
50429;SDS011;36359;41.556;-8.418;2024-03-23T10:32:14;12.60;;;4.90;;
50429;SDS011;36359;41.556;-8.418;2024-03-23T10:34:41;8.63;;;3.28;;
50429;SDS011;36359;41.556;-8.418;2024-03-23T10:37:07;11.82;;;3.03;;
50429;SDS011;36359;41.556;-8.418;2024-03-23T10:39:43;10.18;;;3.72;;
50429;SDS011;36359;41.556;-8.418;2024-03-23T10:42:09;12.82;;;5.70;;
50429;SDS011;36359;41.556;-8.418;2024-03-23T10:44:38;15.20;;;6.88;;
50429;SDS011;36359;41.556;-8.418;2024-03-23T10:47:04;22.88;;;11.32;;
50429;SDS011;36359;41.556;-8.418;2024-03-23T10:49:35;28.38;;;13.90;;
50429;SDS011;36359;41.556;-8.418;2024-03-23T10:52:02;28.80;;;14.70;;
50429;SDS011;36359;41.556;-8.418;2024-03-23T10:54:30;28.55;;;19.52;;
50429;SDS011;36359;41.556;-8.418;2024-03-23T10:57:26;38.65;;;21.48;;
50429;SDS011;36359;41.556;-8.418;2024-03-23T11:00:09;21.38;;;8.48;;
50429;SDS011;36359;41.556;-8.418;2024-03-23T11:02:36;18.88;;;9.60;;
50429;SDS011;36359;41.556;-8.418;2024-03-23T11:05:01;30.95;;;19.25;;
50429;SDS011;36359;41.556;-8.418;2024-03-23T11:07:51;37.15;;;24.77;;
50429;SDS011;36359;41.556;-8.418;2024-03-23T11:10:50;21.58;;;11.70;;
50429;SDS011;36359;41.556;-8.418;2024-03-23T11:13:22;17.85;;;9.90;;
50429;SDS011;36359;41.556;-8.418;2024-03-23T11:15:48;24.35;;;12.43;;
50429;SDS011;36359;41.556;-8.418;2024-03-23T11:18:20;29.17;;;20.23;;
50429;SDS011;36359;41.556;-8.418;2024-03-23T11:20:46;24.02;;;15.63;;
50429;SDS011;36359;41.556;-8.418;2024-03-23T11:23:27;24.75;;;16.10;;
50429;SDS011;36359;41.556;-8.418;2024-03-23T11:25:53;23.38;;;13.80;;
50429;SDS011;36359;41.556;-8.418;2024-03-23T11:28:19;31.83;;;20.05;;
50429;SDS011;36359;41.556;-8.418;2024-03-23T11:30:47;17.70;;;8.80;;
50429;SDS011;36359;41.556;-8.418;2024-03-23T11:33:12;23.58;;;9.23;;
50429;SDS011;36359;41.556;-8.418;2024-03-23T11:35:38;14.70;;;4.60;;
50429;SDS011;36359;41.556;-8.418;2024-03-23T11:40:31;17.15;;;10.20;;
50429;SDS011;36359;41.556;-8.418;2024-03-23T11:42:58;16.70;;;3.83;;
50429;SDS011;36359;41.556;-8.418;2024-03-23T11:45:25;11.73;;;3.90;;
50429;SDS011;36359;41.556;-8.418;2024-03-23T11:48:04;12.35;;;3.40;;
50429;SDS011;36359;41.556;-8.418;2024-03-23T11:50:31;17.15;;;7.63;;
50429;SDS011;36359;41.556;-8.418;2024-03-23T11:53:07;13.00;;;3.30;;
50429;SDS011;36359;41.556;-8.418;2024-03-23T11:55:43;10.38;;;3.13;;
50429;SDS011;36359;41.556;-8.418;2024-03-23T11:58:14;14.60;;;3.63;;
50429;SDS011;36359;41.556;-8.418;2024-03-23T12:00:40;11.45;;;3.05;;
50429;SDS011;36359;41.556;-8.418;2024-03-23T12:03:06;13.48;;;3.53;;
50429;SDS011;36359;41.556;-8.418;2024-03-23T12:05:32;10.07;;;3.42;;
50429;SDS011;36359;41.556;-8.418;2024-03-23T12:08:18;11.48;;;3.15;;
50429;SDS011;36359;41.556;-8.418;2024-03-23T12:10:48;11.50;;;3.10;;
50429;SDS011;36359;41.556;-8.418;2024-03-23T12:13:15;15.88;;;3.67;;
50429;SDS011;36359;41.556;-8.418;2024-03-23T12:15:43;13.60;;;3.38;;
50429;SDS011;36359;41.556;-8.418;2024-03-23T12:18:12;14.15;;;3.33;;
50429;SDS011;36359;41.556;-8.418;2024-03-23T12:20:38;9.73;;;4.00;;
50429;SDS011;36359;41.556;-8.418;2024-03-23T12:23:08;18.25;;;4.22;;
50429;SDS011;36359;41.556;-8.418;2024-03-23T12:25:37;10.98;;;4.50;;
50429;SDS011;36359;41.556;-8.418;2024-03-23T12:28:04;13.18;;;4.75;;
50429;SDS011;36359;41.556;-8.418;2024-03-23T12:30:34;16.13;;;4.83;;
50429;SDS011;36359;41.556;-8.418;2024-03-23T12:33:01;12.80;;;5.13;;
50429;SDS011;36359;41.556;-8.418;2024-03-23T12:35:28;10.38;;;4.30;;
50429;SDS011;36359;41.556;-8.418;2024-03-23T12:37:54;12.55;;;4.80;;
50429;SDS011;36359;41.556;-8.418;2024-03-23T12:40:20;10.38;;;5.03;;
50429;SDS011;36359;41.556;-8.418;2024-03-23T12:42:45;13.38;;;5.10;;
50429;SDS011;36359;41.556;-8.418;2024-03-23T12:45:11;16.58;;;7.53;;
50429;SDS011;36359;41.556;-8.418;2024-03-23T12:47:37;13.75;;;5.25;;
50429;SDS011;36359;41.556;-8.418;2024-03-23T12:50:03;13.75;;;4.32;;
50429;SDS011;36359;41.556;-8.418;2024-03-23T12:52:29;11.80;;;4.10;;
50429;SDS011;36359;41.556;-8.418;2024-03-23T12:54:55;13.38;;;4.60;;
50429;SDS011;36359;41.556;-8.418;2024-03-23T12:57:22;14.38;;;4.07;;
50429;SDS011;36359;41.556;-8.418;2024-03-23T12:59:49;8.88;;;3.80;;
50429;SDS011;36359;41.556;-8.418;2024-03-23T13:02:18;12.50;;;3.92;;
50429;SDS011;36359;41.556;-8.418;2024-03-23T13:04:50;14.63;;;4.38;;
50429;SDS011;36359;41.556;-8.418;2024-03-23T13:07:17;14.85;;;4.38;;
50429;SDS011;36359;41.556;-8.418;2024-03-23T13:09:43;11.82;;;3.55;;
50429;SDS011;36359;41.556;-8.418;2024-03-23T13:12:09;17.80;;;7.93;;
50429;SDS011;36359;41.556;-8.418;2024-03-23T13:14:37;13.63;;;4.60;;
50429;SDS011;36359;41.556;-8.418;2024-03-23T13:17:04;10.30;;;2.67;;
50429;SDS011;36359;41.556;-8.418;2024-03-23T13:19:30;13.43;;;6.72;;
50429;SDS011;36359;41.556;-8.418;2024-03-23T13:21:57;17.40;;;5.65;;
50429;SDS011;36359;41.556;-8.418;2024-03-23T13:24:27;15.43;;;4.22;;
50429;SDS011;36359;41.556;-8.418;2024-03-23T13:26:54;11.27;;;4.75;;
50429;SDS011;36359;41.556;-8.418;2024-03-23T13:29:21;10.55;;;4.40;;
50429;SDS011;36359;41.556;-8.418;2024-03-23T13:31:48;15.48;;;3.70;;
50429;SDS011;36359;41.556;-8.418;2024-03-23T13:34:15;14.73;;;4.40;;
50429;SDS011;36359;41.556;-8.418;2024-03-23T13:36:42;11.95;;;4.30;;
50429;SDS011;36359;41.556;-8.418;2024-03-23T13:39:08;12.50;;;4.05;;
50429;SDS011;36359;41.556;-8.418;2024-03-23T13:41:38;19.77;;;4.50;;
50429;SDS011;36359;41.556;-8.418;2024-03-23T13:44:04;12.82;;;4.50;;
50429;SDS011;36359;41.556;-8.418;2024-03-23T13:46:30;12.43;;;3.83;;
50429;SDS011;36359;41.556;-8.418;2024-03-23T13:48:56;10.60;;;3.45;;
50429;SDS011;36359;41.556;-8.418;2024-03-23T13:51:24;12.68;;;3.45;;
50429;SDS011;36359;41.556;-8.418;2024-03-23T13:53:53;14.93;;;4.05;;
50429;SDS011;36359;41.556;-8.418;2024-03-23T13:56:20;10.35;;;3.47;;
50429;SDS011;36359;41.556;-8.418;2024-03-23T13:58:46;15.70;;;3.40;;
50429;SDS011;36359;41.556;-8.418;2024-03-23T14:01:15;18.40;;;3.63;;
50429;SDS011;36359;41.556;-8.418;2024-03-23T14:03:42;16.42;;;3.58;;
50429;SDS011;36359;41.556;-8.418;2024-03-23T14:06:08;11.43;;;3.42;;
50429;SDS011;36359;41.556;-8.418;2024-03-23T14:08:35;18.10;;;4.28;;
50429;SDS011;36359;41.556;-8.418;2024-03-23T14:11:02;14.15;;;3.15;;
50429;SDS011;36359;41.556;-8.418;2024-03-23T14:13:29;13.40;;;2.85;;
50429;SDS011;36359;41.556;-8.418;2024-03-23T14:15:55;12.73;;;2.67;;
50429;SDS011;36359;41.556;-8.418;2024-03-23T14:18:20;16.73;;;3.00;;
50429;SDS011;36359;41.556;-8.418;2024-03-23T14:20:49;14.07;;;2.45;;
50429;SDS011;36359;41.556;-8.418;2024-03-23T14:23:16;13.68;;;2.97;;
50429;SDS011;36359;41.556;-8.418;2024-03-23T14:25:42;12.73;;;2.90;;
50429;SDS011;36359;41.556;-8.418;2024-03-23T14:28:08;20.65;;;3.47;;
50429;SDS011;36359;41.556;-8.418;2024-03-23T14:30:41;12.60;;;2.95;;
50429;SDS011;36359;41.556;-8.418;2024-03-23T14:33:07;14.88;;;2.95;;
50429;SDS011;36359;41.556;-8.418;2024-03-23T14:35:34;27.05;;;4.22;;
50429;SDS011;36359;41.556;-8.418;2024-03-23T14:37:59;15.35;;;3.28;;
50429;SDS011;36359;41.556;-8.418;2024-03-23T14:40:25;12.50;;;3.08;;
50429;SDS011;36359;41.556;-8.418;2024-03-23T14:42:54;12.98;;;2.78;;
50429;SDS011;36359;41.556;-8.418;2024-03-23T14:45:23;10.02;;;2.45;;
50429;SDS011;36359;41.556;-8.418;2024-03-23T14:47:50;18.77;;;2.92;;
50429;SDS011;36359;41.556;-8.418;2024-03-23T14:50:16;17.90;;;2.75;;
50429;SDS011;36359;41.556;-8.418;2024-03-23T14:52:45;17.50;;;2.92;;
50429;SDS011;36359;41.556;-8.418;2024-03-23T14:55:14;11.25;;;2.97;;
50429;SDS011;36359;41.556;-8.418;2024-03-23T14:57:40;10.40;;;2.70;;
50429;SDS011;36359;41.556;-8.418;2024-03-23T15:00:07;15.07;;;3.00;;
50429;SDS011;36359;41.556;-8.418;2024-03-23T15:02:35;11.18;;;3.60;;
50429;SDS011;36359;41.556;-8.418;2024-03-23T15:05:01;15.25;;;3.25;;
50429;SDS011;36359;41.556;-8.418;2024-03-23T15:07:30;17.65;;;3.20;;
50429;SDS011;36359;41.556;-8.418;2024-03-23T15:09:56;17.42;;;3.45;;
50429;SDS011;36359;41.556;-8.418;2024-03-23T15:12:22;17.08;;;4.03;;
50429;SDS011;36359;41.556;-8.418;2024-03-23T15:14:48;19.02;;;3.78;;
50429;SDS011;36359;41.556;-8.418;2024-03-23T15:17:14;14.43;;;3.53;;
50429;SDS011;36359;41.556;-8.418;2024-03-23T15:19:40;22.85;;;4.38;;
50429;SDS011;36359;41.556;-8.418;2024-03-23T15:22:08;15.65;;;3.70;;
50429;SDS011;36359;41.556;-8.418;2024-03-23T15:24:34;21.98;;;4.07;;